Time;durP1;ratioP1;P1;durP2;ratioP2;P2;SDS_P1;SDS_P2;PMS_P1;PMS_P2;Temp;Humidity;BMP_temperature;BMP_pressure;BME280_temperature;BME280_humidity;BME280_pressure;Samples;Min_cycle;Max_cycle;Signal;HPM_P1;HPM_P2
2023/07/29 00:02:06;;;;;;;12.57;9.40;;;18.50;99.90;;;;;;5006318;28;20088;-68
2023/07/29 00:04:31;;;;;;;12.57;9.40;;;18.50;99.90;;;;;;5022743;28;20035;-70
2023/07/29 00:06:57;;;;;;;11.52;9.18;;;18.50;99.90;;;;;;5028832;28;20043;-71
2023/07/29 00:09:23;;;;;;;13.75;10.00;;;18.50;99.90;;;;;;4954559;28;20045;-70
2023/07/29 00:11:48;;;;;;;12.15;9.65;;;18.50;99.90;;;;;;5021939;28;20096;-69
2023/07/29 00:14:14;;;;;;;12.20;9.73;;;18.40;99.90;;;;;;5003012;28;20050;-69
2023/07/29 00:16:40;;;;;;;12.88;9.70;;;18.40;99.90;;;;;;4957718;28;20126;-70
2023/07/29 00:19:06;;;;;;;17.27;10.07;;;18.40;99.90;;;;;;5040336;28;20047;-72
2023/07/29 00:21:31;;;;;;;11.10;9.15;;;18.40;99.90;;;;;;5003216;28;20043;-71
2023/07/29 00:23:57;;;;;;;12.05;9.50;;;18.40;99.90;;;;;;4999333;28;20035;-69
2023/07/29 00:26:25;;;;;;;13.00;9.38;;;18.40;99.90;;;;;;4954472;28;20039;-69
2023/07/29 00:28:51;;;;;;;12.98;9.32;;;18.40;99.90;;;;;;4995346;28;20065;-69
2023/07/29 00:31:17;;;;;;;13.20;9.35;;;18.40;99.90;;;;;;5015111;28;20888;-70
2023/07/29 00:33:43;;;;;;;11.80;9.88;;;18.30;99.90;;;;;;4952232;28;20039;-70
2023/07/29 00:36:08;;;;;;;12.93;9.25;;;18.30;99.90;;;;;;4957528;28;20130;-69
2023/07/29 00:38:34;;;;;;;11.38;9.00;;;18.30;99.90;;;;;;4997341;28;20043;-71
2023/07/29 00:41:03;;;;;;;11.90;9.75;;;18.30;99.90;;;;;;4950714;28;20039;-69
2023/07/29 00:43:29;;;;;;;14.82;9.20;;;18.20;99.90;;;;;;4997585;28;20047;-69
2023/07/29 00:45:57;;;;;;;11.30;9.15;;;18.20;99.90;;;;;;5030420;28;20039;-69
2023/07/29 00:48:23;;;;;;;11.13;9.07;;;18.20;99.90;;;;;;5021894;28;20043;-70
2023/07/29 00:50:49;;;;;;;13.00;8.98;;;18.10;99.90;;;;;;4988912;28;20039;-71
2023/07/29 00:53:15;;;;;;;14.77;8.75;;;18.10;99.90;;;;;;5018038;28;20047;-70
2023/07/29 00:55:42;;;;;;;12.45;9.40;;;18.10;99.90;;;;;;4993060;28;20052;-69
2023/07/29 00:58:07;;;;;;;15.20;9.85;;;18.10;99.90;;;;;;4949362;28;20044;-67
2023/07/29 01:00:33;;;;;;;12.82;8.60;;;18.00;99.90;;;;;;5016902;28;20039;-67
2023/07/29 01:02:59;;;;;;;10.88;9.15;;;18.00;99.90;;;;;;4991979;28;20122;-69
2023/07/29 01:05:29;;;;;;;10.55;8.82;;;18.00;99.90;;;;;;4947872;28;20046;-67
2023/07/29 01:08:16;;;;;;;11.68;9.30;;;18.00;99.90;;;;;;4966710;28;20472;-67
2023/07/29 01:10:54;;;;;;;11.38;9.40;;;18.00;99.90;;;;;;4977273;28;20126;-67
2023/07/29 01:13:37;;;;;;;13.07;8.80;;;17.90;99.90;;;;;;4992034;28;20047;-67
2023/07/29 01:16:11;;;;;;;13.02;8.63;;;17.90;99.90;;;;;;4983794;28;20054;-67
2023/07/29 01:18:39;;;;;;;13.88;9.18;;;17.90;99.90;;;;;;5007721;28;20066;-67
2023/07/29 01:21:08;;;;;;;12.40;9.05;;;17.90;99.90;;;;;;5011958;28;20130;-67
2023/07/29 01:23:34;;;;;;;12.95;9.00;;;17.80;99.90;;;;;;5005925;28;20435;-67
2023/07/29 01:26:00;;;;;;;10.88;8.13;;;17.80;99.90;;;;;;5007475;28;20043;-67
2023/07/29 01:28:27;;;;;;;11.85;8.68;;;17.70;99.90;;;;;;5011186;28;20051;-67
2023/07/29 01:31:06;;;;;;;10.82;8.93;;;17.70;99.90;;;;;;5003306;28;20043;-67
2023/07/29 01:33:40;;;;;;;13.85;8.77;;;17.70;99.90;;;;;;4946033;28;20467;-67
2023/07/29 01:36:17;;;;;;;12.30;8.57;;;17.70;99.90;;;;;;5018565;28;20051;-70
2023/07/29 01:38:44;;;;;;;13.07;8.07;;;17.70;99.90;;;;;;5001424;28;20393;-67
2023/07/29 01:41:10;;;;;;;12.40;8.07;;;17.70;99.90;;;;;;4952818;28;20439;-70
2023/07/29 01:43:42;;;;;;;11.27;8.20;;;17.60;99.90;;;;;;5010256;28;20112;-69
2023/07/29 01:46:12;;;;;;;10.43;8.63;;;17.70;99.90;;;;;;5006760;28;20050;-67
2023/07/29 01:48:38;;;;;;;10.18;7.85;;;17.70;99.90;;;;;;4999534;28;20085;-68
2023/07/29 01:51:05;;;;;;;12.02;8.13;;;17.60;99.90;;;;;;5010280;28;20043;-70
2023/07/29 01:53:30;;;;;;;15.32;8.70;;;17.60;99.90;;;;;;4998592;28;20050;-67
2023/07/29 01:55:57;;;;;;;14.65;8.02;;;17.60;99.90;;;;;;5018648;28;20043;-70
2023/07/29 01:58:23;;;;;;;10.23;8.13;;;17.60;99.90;;;;;;5009905;28;20089;-68
2023/07/29 02:00:48;;;;;;;10.80;7.60;;;17.60;99.90;;;;;;4953276;28;20064;-69
2023/07/29 02:03:14;;;;;;;10.75;7.80;;;17.60;99.90;;;;;;5007514;28;20070;-71
2023/07/29 02:05:40;;;;;;;12.10;8.70;;;17.60;99.90;;;;;;4949452;28;20108;-70
2023/07/29 02:08:05;;;;;;;12.35;8.02;;;17.60;99.90;;;;;;5014920;28;20084;-67
2023/07/29 02:10:31;;;;;;;10.75;8.63;;;17.60;99.90;;;;;;4953489;28;20042;-67
2023/07/29 02:12:57;;;;;;;10.20;7.88;;;17.60;99.90;;;;;;5016971;28;20043;-67
2023/07/29 02:15:23;;;;;;;12.18;7.35;;;17.60;99.90;;;;;;5002680;28;20046;-70
2023/07/29 02:17:50;;;;;;;10.77;8.23;;;17.60;99.90;;;;;;4951979;28;20125;-67
2023/07/29 02:20:16;;;;;;;9.75;7.22;;;17.60;99.90;;;;;;4950637;28;20062;-67
2023/07/29 02:22:42;;;;;;;8.65;7.18;;;17.60;99.90;;;;;;4957820;28;20043;-67
2023/07/29 02:25:07;;;;;;;12.32;7.70;;;17.60;99.90;;;;;;5015390;28;20488;-67
2023/07/29 02:27:33;;;;;;;9.05;7.30;;;17.70;99.90;;;;;;5016866;28;20045;-68
2023/07/29 02:29:59;;;;;;;11.68;7.13;;;17.70;99.90;;;;;;4944218;28;20040;-67
2023/07/29 02:32:24;;;;;;;10.38;7.85;;;17.70;99.90;;;;;;4951332;28;20625;-67
2023/07/29 02:34:50;;;;;;;9.15;7.45;;;17.70;99.90;;;;;;5015754;28;20062;-67
2023/07/29 02:37:16;;;;;;;10.05;7.25;;;17.70;99.90;;;;;;4960890;28;20043;-67
2023/07/29 02:39:42;;;;;;;9.27;6.88;;;17.70;99.90;;;;;;4948754;28;20043;-67
2023/07/29 02:42:08;;;;;;;9.70;6.85;;;17.70;99.90;;;;;;4941638;28;20028;-67
2023/07/29 02:44:33;;;;;;;10.23;6.78;;;17.70;99.90;;;;;;4950088;28;20035;-69
2023/07/29 02:46:59;;;;;;;11.88;7.22;;;17.70;99.90;;;;;;4950221;28;20174;-67
2023/07/29 02:49:24;;;;;;;9.27;6.68;;;17.60;99.90;;;;;;5025384;28;20113;-67
2023/07/29 02:51:50;;;;;;;10.55;7.00;;;17.60;99.90;;;;;;4951261;28;20047;-67
2023/07/29 02:54:16;;;;;;;10.32;6.93;;;17.60;99.90;;;;;;5015267;28;20075;-70
2023/07/29 02:56:41;;;;;;;9.57;6.32;;;17.60;99.90;;;;;;4954248;28;20127;-67
2023/07/29 02:59:07;;;;;;;10.27;5.97;;;17.50;99.90;;;;;;5016890;28;20046;-67
2023/07/29 03:01:33;;;;;;;10.15;5.90;;;17.50;99.90;;;;;;5024874;28;20500;-67
2023/07/29 03:03:58;;;;;;;10.48;6.03;;;17.50;99.90;;;;;;4978686;28;20046;-67
2023/07/29 03:06:24;;;;;;;8.10;5.70;;;17.50;99.90;;;;;;5033689;28;20041;-69
2023/07/29 03:08:50;;;;;;;7.43;5.53;;;17.50;99.90;;;;;;5013889;28;20047;-67
2023/07/29 03:11:16;;;;;;;10.57;6.38;;;17.50;99.90;;;;;;5007178;28;20043;-67
2023/07/29 03:13:42;;;;;;;10.07;5.75;;;17.50;99.90;;;;;;4955502;28;20408;-67
2023/07/29 03:16:14;;;;;;;8.65;5.40;;;17.50;99.90;;;;;;5022004;28;20180;-67
2023/07/29 03:18:40;;;;;;;8.85;5.25;;;17.40;99.90;;;;;;5021485;28;20038;-67
2023/07/29 03:21:10;;;;;;;8.40;5.43;;;17.40;99.90;;;;;;5014134;28;20607;-67
2023/07/29 03:23:36;;;;;;;7.20;5.07;;;17.40;99.90;;;;;;5018277;28;20404;-69
2023/07/29 03:26:09;;;;;;;6.45;5.10;;;17.40;99.90;;;;;;5011034;28;20046;-67
2023/07/29 03:28:37;;;;;;;7.68;5.05;;;17.30;99.90;;;;;;4948564;28;20535;-68
2023/07/29 03:31:03;;;;;;;7.57;5.53;;;17.30;99.90;;;;;;5000368;28;20494;-67
2023/07/29 03:33:29;;;;;;;7.25;5.20;;;17.30;99.90;;;;;;4948746;28;20038;-67
2023/07/29 03:35:54;;;;;;;7.97;5.03;;;17.20;99.90;;;;;;5005325;28;20041;-68
2023/07/29 03:38:20;;;;;;;7.72;4.78;;;17.30;99.90;;;;;;4954681;28;20484;-67
2023/07/29 03:40:46;;;;;;;8.43;4.72;;;17.20;99.90;;;;;;5005111;28;20111;-67
2023/07/29 03:43:12;;;;;;;7.47;4.47;;;17.30;99.90;;;;;;5011496;28;20112;-72
2023/07/29 03:45:39;;;;;;;7.78;4.40;;;17.20;99.90;;;;;;5014334;28;20038;-68
2023/07/29 03:48:04;;;;;;;6.80;4.80;;;17.20;99.90;;;;;;4994168;28;20116;-67
2023/07/29 03:50:30;;;;;;;8.50;4.43;;;17.20;99.90;;;;;;5022535;28;20536;-67
2023/07/29 03:52:56;;;;;;;5.50;4.00;;;17.20;99.90;;;;;;4955127;28;20034;-67
2023/07/29 03:55:22;;;;;;;6.10;3.95;;;17.20;99.90;;;;;;4944133;28;20045;-67
2023/07/29 03:57:48;;;;;;;9.77;4.53;;;17.20;99.90;;;;;;5019105;28;20048;-67
2023/07/29 04:00:14;;;;;;;7.00;4.25;;;17.20;99.90;;;;;;5027647;28;20070;-69
2023/07/29 04:02:40;;;;;;;8.70;4.57;;;17.20;99.90;;;;;;5023608;28;20031;-70
2023/07/29 04:05:08;;;;;;;5.78;3.80;;;17.20;99.90;;;;;;4998328;28;20099;-67
2023/07/29 04:07:37;;;;;;;6.70;3.90;;;17.20;99.90;;;;;;5024273;28;20035;-66
2023/07/29 04:10:04;;;;;;;8.00;4.20;;;17.20;99.90;;;;;;5015044;28;20122;-67
2023/07/29 04:12:30;;;;;;;8.23;4.00;;;17.20;99.90;;;;;;4961214;28;20039;-67
2023/07/29 04:14:55;;;;;;;6.07;3.72;;;17.20;99.90;;;;;;4946480;28;20075;-67
2023/07/29 04:17:21;;;;;;;5.90;3.92;;;17.20;99.90;;;;;;4955850;28;20075;-67
2023/07/29 04:19:47;;;;;;;7.18;3.40;;;17.20;99.90;;;;;;4941561;28;20071;-67
2023/07/29 04:22:12;;;;;;;5.93;3.50;;;17.20;99.90;;;;;;4987465;28;20067;-68
2023/07/29 04:24:38;;;;;;;6.05;4.20;;;17.20;99.90;;;;;;4948747;28;20508;-67
2023/07/29 04:27:04;;;;;;;6.63;3.42;;;17.20;99.90;;;;;;4956862;28;20039;-67
2023/07/29 04:29:29;;;;;;;5.20;3.40;;;17.30;99.90;;;;;;5010084;28;20040;-67
2023/07/29 04:31:55;;;;;;;6.80;3.92;;;17.20;99.90;;;;;;4989466;28;20047;-67
2023/07/29 04:34:21;;;;;;;6.72;3.97;;;17.20;99.90;;;;;;4948554;28;20035;-69
2023/07/29 04:36:47;;;;;;;5.78;4.05;;;17.20;99.90;;;;;;5011841;28;20039;-70
2023/07/29 04:39:13;;;;;;;6.47;3.60;;;17.10;99.90;;;;;;5005813;28;20494;-70
2023/07/29 04:41:39;;;;;;;5.65;4.00;;;17.10;99.90;;;;;;5008550;28;20124;-68
2023/07/29 04:44:05;;;;;;;5.35;3.70;;;17.10;99.90;;;;;;5011123;28;20081;-67
2023/07/29 04:46:31;;;;;;;6.63;4.13;;;17.10;99.90;;;;;;4947271;28;20039;-69
2023/07/29 04:48:56;;;;;;;6.32;4.13;;;17.10;99.90;;;;;;4934819;28;20430;-67
2023/07/29 04:51:23;;;;;;;6.47;3.80;;;17.10;99.90;;;;;;4936199;28;20042;-70
2023/07/29 04:53:48;;;;;;;5.28;3.67;;;17.10;99.90;;;;;;4940694;28;20524;-67
2023/07/29 04:56:14;;;;;;;5.00;3.75;;;17.00;99.90;;;;;;4954663;28;20043;-67
2023/07/29 04:58:39;;;;;;;5.68;3.85;;;17.10;99.90;;;;;;5028683;28;20066;-67
2023/07/29 05:01:06;;;;;;;6.25;3.85;;;17.10;99.90;;;;;;5001204;28;20054;-70
2023/07/29 05:03:32;;;;;;;6.05;3.90;;;17.10;99.90;;;;;;5009333;28;20060;-68
2023/07/29 05:05:59;;;;;;;7.32;4.00;;;17.10;99.90;;;;;;5025955;28;20031;-70
2023/07/29 05:08:28;;;;;;;8.90;4.43;;;17.10;99.90;;;;;;5007821;28;20489;-67
2023/07/29 05:10:54;;;;;;;9.98;4.22;;;17.10;99.90;;;;;;5010996;28;20035;-67
2023/07/29 05:13:20;;;;;;;7.72;4.50;;;17.10;99.90;;;;;;5012089;28;20049;-69
2023/07/29 05:15:47;;;;;;;7.90;4.97;;;17.10;99.90;;;;;;5036960;28;20038;-67
2023/07/29 05:18:13;;;;;;;6.50;4.15;;;17.10;99.90;;;;;;4954788;28;20105;-67
2023/07/29 05:20:39;;;;;;;9.65;5.15;;;17.20;99.90;;;;;;5011262;28;20043;-67
2023/07/29 05:23:04;;;;;;;8.38;5.00;;;17.20;99.90;;;;;;5014939;23;20041;-70
2023/07/29 05:25:30;;;;;;;7.50;4.82;;;17.20;99.90;;;;;;4998886;28;20094;-70
2023/07/29 05:27:57;;;;;;;10.57;5.45;;;17.20;99.90;;;;;;5002494;28;20038;-70
2023/07/29 05:30:22;;;;;;;9.90;5.60;;;17.20;99.90;;;;;;5028761;28;20122;-69
2023/07/29 05:32:48;;;;;;;8.95;4.97;;;17.20;99.90;;;;;;5011979;27;20368;-70
2023/07/29 05:35:14;;;;;;;9.05;5.13;;;17.20;99.90;;;;;;5028529;28;20033;-70
2023/07/29 05:37:40;;;;;;;8.02;5.18;;;17.20;99.90;;;;;;5011370;28;20095;-70
2023/07/29 05:40:08;;;;;;;9.57;4.95;;;17.20;99.90;;;;;;5024571;28;20053;-70
2023/07/29 05:42:34;;;;;;;10.40;5.68;;;17.30;99.90;;;;;;4996512;28;20042;-70
2023/07/29 05:45:00;;;;;;;7.95;5.13;;;17.30;99.90;;;;;;4997884;28;20045;-69
2023/07/29 05:47:25;;;;;;;11.32;5.57;;;17.30;99.90;;;;;;5012325;28;20026;-69
2023/07/29 05:49:52;;;;;;;9.70;5.38;;;17.30;99.90;;;;;;5016711;28;20026;-70
2023/07/29 05:52:17;;;;;;;10.07;5.82;;;17.40;99.90;;;;;;5001917;28;20514;-70
2023/07/29 05:54:43;;;;;;;13.13;5.65;;;17.40;99.90;;;;;;5016507;28;20025;-70
2023/07/29 05:57:12;;;;;;;10.80;5.55;;;17.40;99.90;;;;;;5002903;28;20037;-69
2023/07/29 05:59:38;;;;;;;10.82;6.20;;;17.40;99.90;;;;;;5007013;28;20040;-70
2023/07/29 06:02:04;;;;;;;11.07;5.93;;;17.40;99.90;;;;;;5001165;28;20086;-70
2023/07/29 06:04:30;;;;;;;10.15;6.03;;;17.40;99.90;;;;;;5019217;28;20082;-70
2023/07/29 06:06:56;;;;;;;9.02;6.20;;;17.40;99.90;;;;;;5003150;28;20041;-70
2023/07/29 06:09:25;;;;;;;9.95;5.95;;;17.40;99.90;;;;;;5028326;27;20396;-71
2023/07/29 06:11:51;;;;;;;11.55;6.22;;;17.50;99.90;;;;;;5019423;28;20042;-70
2023/07/29 06:14:17;;;;;;;12.32;5.72;;;17.50;99.90;;;;;;5014051;28;20465;-70
2023/07/29 06:16:42;;;;;;;12.05;6.15;;;17.60;99.90;;;;;;5021330;28;20030;-70
2023/07/29 06:19:08;;;;;;;11.52;5.78;;;17.70;99.90;;;;;;5022201;27;20045;-70
2023/07/29 06:21:35;;;;;;;10.93;5.38;;;17.70;99.90;;;;;;5027587;28;20120;-71
2023/07/29 06:24:01;;;;;;;10.45;5.63;;;17.70;99.90;;;;;;5001794;28;20046;-71
2023/07/29 06:26:26;;;;;;;11.40;5.72;;;17.80;99.90;;;;;;5027188;27;20046;-70
2023/07/29 06:28:53;;;;;;;14.77;6.32;;;17.80;99.90;;;;;;5023828;28;20073;-70
2023/07/29 06:31:19;;;;;;;13.38;5.95;;;17.90;99.90;;;;;;5018024;28;20033;-70
2023/07/29 06:33:45;;;;;;;12.00;5.70;;;17.90;99.90;;;;;;5018549;28;20052;-69
2023/07/29 06:36:11;;;;;;;7.97;4.82;;;18.00;99.90;;;;;;5022622;28;20033;-71
2023/07/29 06:38:38;;;;;;;11.88;5.50;;;18.00;99.90;;;;;;5027229;28;20567;-70
2023/07/29 06:41:04;;;;;;;10.52;5.68;;;18.00;99.90;;;;;;5020213;28;20076;-70
2023/07/29 06:43:30;;;;;;;10.07;4.65;;;18.00;99.90;;;;;;4999266;28;20038;-73
2023/07/29 06:45:56;;;;;;;12.32;5.63;;;18.10;99.90;;;;;;5003998;28;20098;-69
2023/07/29 06:48:21;;;;;;;10.77;5.70;;;18.10;99.90;;;;;;5017198;28;20030;-69
2023/07/29 06:50:47;;;;;;;13.68;5.60;;;18.10;99.90;;;;;;5019986;28;20133;-69
2023/07/29 06:53:13;;;;;;;13.68;5.20;;;18.10;99.90;;;;;;5011875;28;20042;-69
2023/07/29 06:55:39;;;;;;;10.38;5.13;;;18.10;99.90;;;;;;5025360;28;20034;-70
2023/07/29 06:58:05;;;;;;;8.52;4.95;;;18.20;99.90;;;;;;5021098;28;20045;-70
2023/07/29 07:00:30;;;;;;;8.70;4.97;;;18.20;99.90;;;;;;5020665;28;20081;-69
2023/07/29 07:02:56;;;;;;;10.10;5.40;;;18.20;99.90;;;;;;5005304;28;20260;-69
2023/07/29 07:05:21;;;;;;;9.15;4.82;;;18.30;99.90;;;;;;5007546;28;20517;-69
2023/07/29 07:07:47;;;;;;;9.90;5.22;;;18.30;99.90;;;;;;5023323;28;20037;-69
2023/07/29 07:10:14;;;;;;;9.75;5.05;;;18.30;99.90;;;;;;5026388;28;20045;-69
2023/07/29 07:12:39;;;;;;;8.98;4.93;;;18.40;99.90;;;;;;5014596;28;20478;-70
2023/07/29 07:15:05;;;;;;;9.90;4.70;;;18.40;99.90;;;;;;5011427;27;20032;-71
2023/07/29 07:17:31;;;;;;;10.00;4.95;;;18.50;99.90;;;;;;5025812;27;20033;-70
2023/07/29 07:19:57;;;;;;;8.95;4.88;;;18.60;99.90;;;;;;5027534;28;20033;-69
2023/07/29 07:22:23;;;;;;;8.63;4.55;;;18.70;99.90;;;;;;5025405;28;20074;-69
2023/07/29 07:24:49;;;;;;;9.38;4.60;;;18.80;99.90;;;;;;5026962;28;20513;-69
2023/07/29 07:27:15;;;;;;;8.52;4.93;;;18.90;99.90;;;;;;5004440;28;20341;-69
2023/07/29 07:29:40;;;;;;;10.35;5.15;;;19.00;99.90;;;;;;5023276;28;20479;-69
2023/07/29 07:32:06;;;;;;;10.07;5.10;;;19.00;99.90;;;;;;5021000;28;20045;-71
2023/07/29 07:34:33;;;;;;;9.95;5.32;;;19.00;99.90;;;;;;5034114;27;20042;-71
2023/07/29 07:36:58;;;;;;;12.13;4.97;;;19.00;99.90;;;;;;5010479;27;20414;-70
2023/07/29 07:39:24;;;;;;;8.05;5.00;;;19.10;99.90;;;;;;5016550;28;20037;-70
2023/07/29 07:41:50;;;;;;;10.95;5.18;;;19.10;99.90;;;;;;5017362;28;20041;-70
2023/07/29 07:44:17;;;;;;;9.68;5.00;;;19.00;99.90;;;;;;5028993;28;20033;-70
2023/07/29 07:46:43;;;;;;;9.25;5.10;;;19.00;99.90;;;;;;5019061;28;20090;-70
2023/07/29 07:49:09;;;;;;;8.43;4.70;;;19.00;99.90;;;;;;5026129;27;21307;-70
2023/07/29 07:51:35;;;;;;;8.25;4.85;;;19.10;99.90;;;;;;5021974;28;20125;-70
2023/07/29 07:54:00;;;;;;;10.73;4.80;;;19.10;99.90;;;;;;5014496;28;20368;-70
2023/07/29 07:56:26;;;;;;;9.65;4.70;;;19.10;99.90;;;;;;5020993;28;20522;-71
2023/07/29 07:58:51;;;;;;;9.15;4.90;;;19.20;99.90;;;;;;5022419;28;20268;-72
2023/07/29 08:01:17;;;;;;;7.38;4.70;;;19.30;99.90;;;;;;5019630;28;20048;-69
2023/07/29 08:03:43;;;;;;;7.47;4.72;;;19.30;99.90;;;;;;5019249;28;20034;-69
2023/07/29 08:06:09;;;;;;;7.93;4.88;;;19.30;99.90;;;;;;5019228;28;20045;-70
2023/07/29 08:08:34;;;;;;;8.77;4.25;;;19.40;99.90;;;;;;5029849;28;20041;-71
2023/07/29 08:11:00;;;;;;;11.13;4.90;;;19.50;99.90;;;;;;5023115;28;20500;-70
2023/07/29 08:13:26;;;;;;;8.20;4.57;;;19.70;99.90;;;;;;5016912;28;20093;-70
2023/07/29 08:15:53;;;;;;;7.15;4.53;;;19.80;99.90;;;;;;5022828;28;20091;-70
2023/07/29 08:18:18;;;;;;;9.77;4.65;;;19.80;99.90;;;;;;5005101;28;20521;-69
2023/07/29 08:21:12;;;;;;;7.22;4.00;;;19.80;99.90;;;;;;5023198;28;20038;-70
2023/07/29 08:23:37;;;;;;;8.57;4.40;;;19.80;99.90;;;;;;5023483;28;20049;-70
2023/07/29 08:26:05;;;;;;;7.93;3.92;;;19.90;99.90;;;;;;5007255;28;20034;-71
2023/07/29 08:28:38;;;;;;;6.80;3.88;;;20.10;99.90;;;;;;5032802;28;20525;-70
2023/07/29 08:31:05;;;;;;;7.93;3.90;;;20.20;99.90;;;;;;5027690;28;20404;-70
2023/07/29 08:33:33;;;;;;;9.07;3.90;;;20.30;99.90;;;;;;5022279;28;20034;-69
2023/07/29 08:35:59;;;;;;;7.78;3.60;;;20.40;99.90;;;;;;5025319;28;20042;-69
2023/07/29 08:38:25;;;;;;;8.00;3.55;;;20.40;99.90;;;;;;5034884;28;20038;-70
2023/07/29 08:41:18;;;;;;;7.05;3.35;;;20.50;99.90;;;;;;5021260;28;20033;-69
2023/07/29 08:43:50;;;;;;;7.55;3.50;;;20.60;99.90;;;;;;5025170;28;20037;-71
2023/07/29 08:46:16;;;;;;;6.53;2.88;;;20.60;99.90;;;;;;5009315;28;20065;-70
2023/07/29 08:48:43;;;;;;;5.15;3.05;;;20.60;99.90;;;;;;5019555;28;20061;-70
2023/07/29 08:51:10;;;;;;;7.22;3.10;;;20.60;99.90;;;;;;5012572;28;20049;-70
2023/07/29 08:53:37;;;;;;;4.78;2.70;;;20.70;99.90;;;;;;5023061;28;20042;-70
2023/07/29 08:56:03;;;;;;;5.55;2.63;;;20.80;99.90;;;;;;5016476;28;20034;-70
2023/07/29 08:58:29;;;;;;;6.78;2.90;;;20.90;99.90;;;;;;5024089;28;20463;-70
2023/07/29 09:00:54;;;;;;;10.40;2.85;;;21.10;99.90;;;;;;5000039;28;20116;-70
2023/07/29 09:03:21;;;;;;;5.68;2.50;;;21.40;99.90;;;;;;5005885;28;20034;-71
2023/07/29 09:05:47;;;;;;;4.53;2.65;;;21.70;99.90;;;;;;5010883;28;20057;-70
2023/07/29 09:08:14;;;;;;;8.48;2.35;;;21.90;99.90;;;;;;4998837;28;20399;-70
2023/07/29 09:10:40;;;;;;;6.88;2.38;;;21.90;99.90;;;;;;5000921;28;20347;-70
2023/07/29 09:13:07;;;;;;;5.85;2.83;;;21.80;99.90;;;;;;5020987;27;20061;-70
2023/07/29 09:15:35;;;;;;;7.88;2.90;;;21.70;99.90;;;;;;5028915;28;20053;-70
2023/07/29 09:18:10;;;;;;;4.47;2.72;;;21.60;99.90;;;;;;5027382;28;20125;-71
2023/07/29 09:20:36;;;;;;;4.50;2.60;;;21.60;99.90;;;;;;5022211;28;20030;-70
2023/07/29 09:23:01;;;;;;;6.45;2.60;;;21.60;99.90;;;;;;5019929;28;20042;-70
2023/07/29 09:25:29;;;;;;;6.93;2.97;;;21.60;99.90;;;;;;4980596;28;20125;-70
2023/07/29 09:28:07;;;;;;;7.93;2.88;;;21.60;99.90;;;;;;5019949;28;20611;-69
2023/07/29 09:30:32;;;;;;;6.03;2.88;;;21.70;99.90;;;;;;5025082;28;20103;-70
2023/07/29 09:32:58;;;;;;;5.63;2.83;;;21.70;99.90;;;;;;5016772;28;20030;-72
2023/07/29 09:35:27;;;;;;;7.88;2.95;;;21.70;99.90;;;;;;5019586;28;20030;-70
2023/07/29 09:37:53;;;;;;;6.15;2.92;;;21.60;99.90;;;;;;5016446;28;20461;-71
2023/07/29 09:40:19;;;;;;;4.65;2.42;;;21.50;99.90;;;;;;5028755;28;20053;-70
2023/07/29 09:42:52;;;;;;;5.00;2.67;;;21.40;99.90;;;;;;5024782;28;20136;-70
2023/07/29 09:45:26;;;;;;;5.05;2.50;;;21.30;99.90;;;;;;5028088;28;20052;-69
2023/07/29 09:47:56;;;;;;;8.43;2.85;;;21.30;99.90;;;;;;5022012;28;20427;-70
2023/07/29 09:50:26;;;;;;;4.57;2.67;;;21.20;99.90;;;;;;5002306;28;20094;-70
2023/07/29 09:52:53;;;;;;;6.15;2.70;;;21.30;99.90;;;;;;5022469;28;20101;-71
2023/07/29 09:55:21;;;;;;;4.53;2.60;;;21.30;99.90;;;;;;5028195;28;20052;-70
2023/07/29 09:57:47;;;;;;;5.32;2.70;;;21.30;99.90;;;;;;5004484;28;20120;-70
2023/07/29 10:00:13;;;;;;;6.18;2.70;;;21.30;99.90;;;;;;5018295;28;20113;-72
2023/07/29 10:02:40;;;;;;;3.95;2.40;;;21.30;99.90;;;;;;5017283;28;20042;-70
2023/07/29 10:05:08;;;;;;;4.60;2.85;;;21.40;99.90;;;;;;5019289;28;20388;-70
2023/07/29 10:07:38;;;;;;;4.68;2.65;;;21.50;99.90;;;;;;5009362;28;20038;-72
2023/07/29 10:10:07;;;;;;;5.38;3.10;;;21.60;99.90;;;;;;5027905;28;20040;-70
2023/07/29 10:12:34;;;;;;;7.63;2.90;;;21.70;99.90;;;;;;5028420;28;20104;-70
2023/07/29 10:15:05;;;;;;;4.63;2.90;;;21.80;99.90;;;;;;5021974;28;20412;-72
2023/07/29 10:17:34;;;;;;;5.20;2.72;;;21.90;99.90;;;;;;5010233;28;20030;-70
2023/07/29 10:20:00;;;;;;;5.22;2.78;;;21.90;99.90;;;;;;5028119;28;20042;-69
2023/07/29 10:22:32;;;;;;;5.13;2.50;;;22.00;99.90;;;;;;5009026;28;20113;-69
2023/07/29 10:25:02;;;;;;;;;;;22.20;99.90;;;;;;4993499;28;20041;-70
2023/07/29 10:27:29;;;;;;;7.00;3.10;;;22.20;99.90;;;;;;5017730;28;19962;-70
2023/07/29 10:29:56;;;;;;;4.85;2.47;;;22.10;99.90;;;;;;5021805;28;20056;-70
2023/07/29 10:32:26;;;;;;;6.28;3.22;;;22.30;99.90;;;;;;5029288;27;20080;-70
2023/07/29 10:34:52;;;;;;;5.00;2.80;;;22.50;99.90;;;;;;5026471;28;20041;-69
2023/07/29 10:37:18;;;;;;;5.03;3.20;;;22.60;99.90;;;;;;5036995;27;20095;-70
2023/07/29 10:39:53;;;;;;;4.25;3.30;;;22.80;99.90;;;;;;5052147;27;20130;-70
2023/07/29 10:42:19;;;;;;;4.93;3.47;;;22.90;99.90;;;;;;5025924;28;20037;-70
2023/07/29 10:44:51;;;;;;;4.35;3.40;;;22.80;99.90;;;;;;5035010;27;20027;-71
2023/07/29 10:47:25;;;;;;;8.25;4.18;;;22.60;99.90;;;;;;4994285;28;20061;-70
2023/07/29 10:49:54;;;;;;;4.80;3.20;;;22.40;99.90;;;;;;5013784;27;20463;-70
2023/07/29 10:52:35;;;;;;;4.88;2.97;;;22.20;99.90;;;;;;5001352;28;20443;-70
2023/07/29 10:55:02;;;;;;;7.40;3.20;;;22.10;99.90;;;;;;5015896;28;20117;-70
2023/07/29 10:57:32;;;;;;;5.93;3.20;;;22.20;99.90;;;;;;5006326;28;20635;-70
2023/07/29 10:59:57;;;;;;;4.63;3.28;;;22.30;99.90;;;;;;5018772;28;20038;-71
2023/07/29 11:02:30;;;;;;;8.18;3.30;;;22.40;99.90;;;;;;4997578;28;20500;-70
2023/07/29 11:04:56;;;;;;;4.82;3.03;;;22.60;99.90;;;;;;5002189;28;20052;-71
2023/07/29 11:07:28;;;;;;;6.85;3.42;;;22.80;99.90;;;;;;5009476;28;20480;-72
2023/07/29 11:10:02;;;;;;;4.20;2.85;;;23.00;99.90;;;;;;5003896;28;20045;-70
2023/07/29 11:12:34;;;;;;;6.35;2.60;;;23.10;99.90;;;;;;5040572;27;20384;-70
2023/07/29 11:15:09;;;;;;;5.95;2.97;;;23.20;99.90;;;;;;5007454;28;20034;-70
2023/07/29 11:17:35;;;;;;;5.60;3.00;;;23.30;99.90;;;;;;5000724;28;20114;-70
2023/07/29 11:20:03;;;;;;;6.43;2.80;;;23.10;99.90;;;;;;5019980;28;20029;-70
2023/07/29 11:22:29;;;;;;;7.82;3.08;;;23.00;99.90;;;;;;4990122;28;20029;-70
2023/07/29 11:24:54;;;;;;;6.10;2.40;;;22.80;99.90;;;;;;5015705;28;20464;-70
2023/07/29 11:27:20;;;;;;;7.40;2.40;;;22.60;99.90;;;;;;4996913;28;20045;-71
2023/07/29 11:29:46;;;;;;;6.70;2.47;;;22.70;99.90;;;;;;5014186;28;20038;-69
2023/07/29 11:32:12;;;;;;;5.18;2.40;;;22.60;99.90;;;;;;5012097;28;20145;-71
2023/07/29 11:34:39;;;;;;;4.35;2.13;;;22.50;99.90;;;;;;5016941;28;20053;-69
2023/07/29 11:37:06;;;;;;;5.28;2.33;;;22.30;99.90;;;;;;5023062;28;20038;-70
2023/07/29 11:39:32;;;;;;;7.15;2.13;;;22.40;99.90;;;;;;5008833;28;20503;-69
2023/07/29 11:41:58;;;;;;;7.28;2.30;;;22.50;99.90;;;;;;5015507;28;20031;-69
2023/07/29 11:44:25;;;;;;;4.47;2.38;;;22.80;99.90;;;;;;4984841;28;20029;-70
2023/07/29 11:46:50;;;;;;;6.88;2.47;;;23.20;99.90;;;;;;5010695;28;20667;-70
2023/07/29 11:49:16;;;;;;;7.32;2.63;;;23.30;99.90;;;;;;5012869;28;20053;-70
2023/07/29 11:51:42;;;;;;;4.78;2.30;;;23.40;99.90;;;;;;5017773;28;20422;-70
2023/07/29 11:54:08;;;;;;;5.95;2.83;;;23.30;99.90;;;;;;5008605;28;20080;-70
2023/07/29 11:56:35;;;;;;;5.78;2.60;;;23.20;99.90;;;;;;5018255;28;20070;-69
2023/07/29 11:59:02;;;;;;;6.38;2.50;;;23.10;99.90;;;;;;5021558;28;20033;-70
2023/07/29 12:01:28;;;;;;;6.20;2.33;;;23.10;99.90;;;;;;5024937;28;20033;-69
2023/07/29 12:03:56;;;;;;;4.88;2.50;;;23.10;99.90;;;;;;5008177;28;20037;-70
2023/07/29 12:06:24;;;;;;;4.68;2.58;;;23.10;99.90;;;;;;5011453;28;20046;-69
2023/07/29 12:08:50;;;;;;;4.55;2.20;;;23.00;99.90;;;;;;5025309;28;20042;-69
2023/07/29 12:11:16;;;;;;;4.30;2.22;;;23.10;99.90;;;;;;5020204;28;20037;-70
2023/07/29 12:13:42;;;;;;;6.22;2.30;;;23.10;99.90;;;;;;5016635;28;20034;-69
2023/07/29 12:16:08;;;;;;;5.03;2.53;;;23.10;99.90;;;;;;5017550;28;20046;-69
2023/07/29 12:18:34;;;;;;;7.30;2.50;;;23.10;99.90;;;;;;5018864;28;20102;-69
2023/07/29 12:21:00;;;;;;;4.22;2.38;;;23.10;99.90;;;;;;5025056;28;20384;-69
2023/07/29 12:23:26;;;;;;;4.95;2.20;;;23.10;99.90;;;;;;5026515;28;20384;-69
2023/07/29 12:26:01;;;;;;;5.60;2.60;;;23.20;99.90;;;;;;5024500;28;20034;-71
2023/07/29 12:28:26;;;;;;;6.22;2.40;;;23.40;99.90;;;;;;5000906;28;20045;-69
2023/07/29 12:30:56;;;;;;;3.63;2.22;;;23.40;99.90;;;;;;5025990;28;20034;-70
2023/07/29 12:33:33;;;;;;;5.03;2.40;;;23.50;99.90;;;;;;5029333;28;20034;-69
2023/07/29 12:35:59;;;;;;;5.40;2.10;;;23.70;99.90;;;;;;4998814;28;20041;-70
2023/07/29 12:38:28;;;;;;;4.30;2.10;;;23.90;99.90;;;;;;5029121;28;20128;-70
2023/07/29 12:40:54;;;;;;;3.97;2.20;;;23.80;99.90;;;;;;4998523;28;20052;-69
2023/07/29 12:43:20;;;;;;;3.85;2.35;;;23.70;99.90;;;;;;5020886;28;20033;-70